Time;durP1;ratioP1;P1;durP2;ratioP2;P2;SDS_P1;SDS_P2;PMS_P1;PMS_P2;Temp;Humidity;BMP_temperature;BMP_pressure;BME280_temperature;BME280_humidity;BME280_pressure;Samples;Min_cycle;Max_cycle;Signal;HPM_P1;HPM_P2
2021/12/22 00:02:37;;;;;;;3.78;3.30;;;-9.90;99.90;;;;;;5084773;28;20671;-58
2021/12/22 00:05:18;;;;;;;4.75;4.35;;;-9.80;99.90;;;;;;5083718;28;20672;-58
2021/12/22 00:07:59;;;;;;;4.82;3.70;;;-9.80;99.90;;;;;;5125575;27;20656;-58
2021/12/22 00:10:39;;;;;;;4.70;4.30;;;-9.80;99.90;;;;;;5104836;27;20558;-58
2021/12/22 00:13:18;;;;;;;3.90;3.60;;;-9.90;99.90;;;;;;5105272;27;21029;-59
2021/12/22 00:15:58;;;;;;;3.90;3.60;;;-10.00;99.90;;;;;;5083688;28;21105;-59
2021/12/22 00:18:38;;;;;;;3.97;3.67;;;-10.00;99.90;;;;;;5084910;28;20667;-59
2021/12/22 00:21:20;;;;;;;4.78;4.20;;;-10.00;99.90;;;;;;5104995;27;20670;-58
2021/12/22 00:23:59;;;;;;;5.00;4.60;;;-10.00;99.90;;;;;;5084752;27;20916;-59
2021/12/22 00:26:39;;;;;;;4.50;4.10;;;-10.00;99.90;;;;;;5145659;27;20665;-58
2021/12/22 00:29:19;;;;;;;4.72;4.32;;;-10.00;99.90;;;;;;5085367;28;20984;-58
2021/12/22 00:32:09;;;;;;;4.82;4.43;;;-10.10;99.90;;;;;;5146728;27;20547;-59
2021/12/22 00:34:53;;;;;;;4.97;4.47;;;-10.10;99.90;;;;;;5084237;28;20547;-59
2021/12/22 00:37:34;;;;;;;4.57;4.25;;;-10.10;99.90;;;;;;5084682;27;20544;-58
2021/12/22 00:40:13;;;;;;;4.80;4.35;;;-10.10;99.90;;;;;;5084682;28;20671;-58
2021/12/22 00:42:53;;;;;;;4.47;4.07;;;-10.10;99.90;;;;;;5104835;27;20689;-58
2021/12/22 00:45:34;;;;;;;5.10;4.60;;;-10.10;99.90;;;;;;5083949;27;20911;-58
2021/12/22 00:48:14;;;;;;;5.07;4.68;;;-10.10;99.90;;;;;;5125754;27;20536;-58
2021/12/22 00:50:54;;;;;;;4.63;4.22;;;-10.10;99.90;;;;;;5105479;27;21007;-58
2021/12/22 00:53:33;;;;;;;5.18;4.57;;;-10.10;99.90;;;;;;5104801;27;21048;-58
2021/12/22 00:56:13;;;;;;;5.50;3.85;;;-10.20;99.90;;;;;;5104167;27;20546;-58
2021/12/22 00:58:53;;;;;;;4.60;4.13;;;-10.10;99.90;;;;;;5084818;27;20547;-58
2021/12/22 01:01:33;;;;;;;5.93;3.90;;;-10.10;99.90;;;;;;5085153;28;20664;-58
2021/12/22 01:04:13;;;;;;;4.50;4.15;;;-10.10;99.90;;;;;;5104587;27;21037;-58
2021/12/22 01:06:53;;;;;;;5.32;4.50;;;-10.20;99.90;;;;;;5084529;27;20907;-58
2021/12/22 01:09:33;;;;;;;5.18;4.70;;;-10.30;99.90;;;;;;5105177;27;20665;-58
2021/12/22 01:12:13;;;;;;;4.78;4.38;;;-10.30;99.90;;;;;;5084726;27;20531;-58
2021/12/22 01:14:52;;;;;;;5.45;4.95;;;-10.30;99.90;;;;;;5104028;27;20534;-58
2021/12/22 01:17:38;;;;;;;5.18;4.78;;;-10.30;99.90;;;;;;5145984;27;20560;-57
2021/12/22 01:20:23;;;;;;;5.10;4.70;;;-10.30;99.90;;;;;;5145982;27;20547;-58
2021/12/22 01:23:04;;;;;;;4.85;4.45;;;-10.20;99.90;;;;;;5125672;27;21077;-59
2021/12/22 01:25:44;;;;;;;4.75;4.35;;;-10.20;99.90;;;;;;5103798;27;20662;-58
2021/12/22 01:28:26;;;;;;;4.82;4.43;;;-10.20;99.90;;;;;;5085139;28;20978;-58
2021/12/22 01:31:06;;;;;;;5.70;5.07;;;-10.20;99.90;;;;;;5104981;27;20545;-58
2021/12/22 01:33:46;;;;;;;5.30;4.80;;;-10.20;99.90;;;;;;5084715;28;20604;-58
2021/12/22 01:36:25;;;;;;;5.57;4.70;;;-10.20;99.90;;;;;;5104268;27;20702;-59
2021/12/22 01:39:06;;;;;;;5.75;5.18;;;-10.20;99.90;;;;;;5084646;27;20687;-58
2021/12/22 01:41:45;;;;;;;5.15;4.55;;;-10.20;99.90;;;;;;5084750;28;21017;-58
2021/12/22 01:44:33;;;;;;;4.72;4.32;;;-10.30;99.90;;;;;;5083780;27;21163;-58
2021/12/22 01:50:31;;;;;;;4.75;4.38;;;-10.30;99.90;;;;;;5104959;27;20558;-58
2021/12/22 01:53:35;;;;;;;4.80;4.40;;;-10.30;99.90;;;;;;5084627;28;20695;-58
2021/12/22 01:56:21;;;;;;;4.95;4.55;;;-10.30;99.90;;;;;;5084036;27;20660;-58
2021/12/22 01:59:03;;;;;;;5.38;4.95;;;-10.30;99.90;;;;;;5084698;27;21483;-58
2021/12/22 02:01:44;;;;;;;6.60;6.00;;;-10.40;99.90;;;;;;5105096;27;20534;-58
2021/12/22 02:04:24;;;;;;;6.28;5.68;;;-10.40;99.90;;;;;;5104144;27;20657;-58
2021/12/22 02:07:04;;;;;;;5.53;4.70;;;-10.40;99.90;;;;;;5084847;28;20679;-59
2021/12/22 02:12:55;;;;;;;4.70;4.30;;;-10.30;99.90;;;;;;5106787;27;21588;-58
2021/12/22 02:15:35;;;;;;;4.90;4.30;;;-10.30;99.90;;;;;;5083952;28;20663;-58
2021/12/22 02:18:18;;;;;;;3.92;3.63;;;-10.40;99.90;;;;;;5146408;27;20963;-58
2021/12/22 02:20:58;;;;;;;4.47;4.07;;;-10.40;99.90;;;;;;5145891;27;20554;-58
2021/12/22 02:23:38;;;;;;;5.88;4.10;;;-10.40;99.90;;;;;;5104826;27;21062;-58
2021/12/22 02:26:21;;;;;;;4.80;4.40;;;-10.40;99.90;;;;;;5104341;27;20538;-58
2021/12/22 02:29:04;;;;;;;4.70;4.35;;;-10.50;99.90;;;;;;5146114;27;20527;-58
2021/12/22 02:31:48;;;;;;;3.92;3.63;;;-10.60;99.90;;;;;;5146250;27;20534;-58
2021/12/22 02:34:28;;;;;;;4.15;3.85;;;-10.70;99.90;;;;;;5084862;27;20679;-58
2021/12/22 02:37:11;;;;;;;4.43;4.07;;;-10.60;99.90;;;;;;5125980;27;20540;-58
2021/12/22 02:39:58;;;;;;;4.47;4.07;;;-10.60;99.90;;;;;;5084809;27;20536;-58
2021/12/22 02:42:37;;;;;;;4.57;4.18;;;-10.60;99.90;;;;;;5146797;27;20535;-58
2021/12/22 02:45:19;;;;;;;4.13;3.72;;;-10.60;99.90;;;;;;5083552;28;20555;-58
2021/12/22 02:47:58;;;;;;;4.03;3.63;;;-10.60;99.90;;;;;;5084624;28;21228;-58
2021/12/22 02:50:40;;;;;;;3.92;3.63;;;-10.60;99.90;;;;;;5084960;27;21056;-59
2021/12/22 02:53:21;;;;;;;3.92;3.40;;;-10.60;99.90;;;;;;5145484;27;21035;-58
2021/12/22 02:56:06;;;;;;;3.50;3.20;;;-10.60;99.90;;;;;;5145640;27;20543;-58
2021/12/22 02:58:57;;;;;;;4.20;3.80;;;-10.60;99.90;;;;;;5085243;28;20986;-58
2021/12/22 03:04:42;;;;;;;4.45;4.05;;;-10.60;99.90;;;;;;5084175;27;20581;-59
2021/12/22 03:07:25;;;;;;;4.28;3.88;;;-10.60;99.90;;;;;;5084314;27;20568;-58
2021/12/22 03:10:11;;;;;;;4.50;3.45;;;-10.60;99.90;;;;;;5105625;27;21313;-58
2021/12/22 03:12:52;;;;;;;4.60;4.20;;;-10.60;99.90;;;;;;5149742;27;20675;-58
2021/12/22 03:15:33;;;;;;;3.95;3.55;;;-10.70;99.90;;;;;;5084351;27;21076;-58
2021/12/22 03:18:12;;;;;;;4.10;3.70;;;-10.70;99.90;;;;;;5105349;27;20689;-58
2021/12/22 03:21:01;;;;;;;4.35;3.95;;;-10.70;99.90;;;;;;5105513;27;20838;-58
2021/12/22 03:23:40;;;;;;;4.68;4.28;;;-10.80;99.90;;;;;;5084219;27;20567;-58
2021/12/22 03:26:22;;;;;;;4.30;3.90;;;-10.80;99.90;;;;;;5104041;27;20677;-58
2021/12/22 03:29:01;;;;;;;4.35;4.05;;;-10.80;99.90;;;;;;5084668;28;20667;-58
2021/12/22 03:31:43;;;;;;;4.63;4.20;;;-10.80;99.90;;;;;;5104996;27;20538;-58
2021/12/22 03:34:23;;;;;;;4.05;3.75;;;-10.80;99.90;;;;;;5083779;28;20555;-58
2021/12/22 03:37:02;;;;;;;4.53;4.13;;;-10.80;99.90;;;;;;5084324;27;20549;-58
2021/12/22 03:39:42;;;;;;;4.50;3.97;;;-10.70;99.90;;;;;;5105096;27;20689;-58
2021/12/22 03:42:22;;;;;;;4.32;3.92;;;-10.80;99.90;;;;;;5085078;27;20707;-58
2021/12/22 03:45:02;;;;;;;4.55;4.15;;;-10.90;99.90;;;;;;5083640;28;21180;-58
2021/12/22 03:47:42;;;;;;;5.22;4.70;;;-10.90;99.90;;;;;;5084480;28;20660;-57
2021/12/22 03:50:22;;;;;;;5.03;4.63;;;-10.80;99.90;;;;;;5084649;28;20664;-58
2021/12/22 03:53:01;;;;;;;4.60;4.20;;;-10.80;99.90;;;;;;5125759;27;20544;-59
2021/12/22 03:55:41;;;;;;;4.43;4.03;;;-10.80;99.90;;;;;;5124530;27;20964;-58
2021/12/22 03:58:22;;;;;;;4.95;4.45;;;-10.80;99.90;;;;;;5146108;27;21174;-59
2021/12/22 04:01:01;;;;;;;5.40;4.40;;;-10.90;99.90;;;;;;5082591;27;20547;-59
2021/12/22 04:03:43;;;;;;;5.15;4.75;;;-10.90;99.90;;;;;;5104887;27;20704;-57
2021/12/22 04:06:22;;;;;;;5.82;3.92;;;-10.90;99.90;;;;;;5083663;27;20564;-58
2021/12/22 04:09:02;;;;;;;5.07;4.68;;;-10.90;99.90;;;;;;5146182;27;20649;-58
2021/12/22 04:11:42;;;;;;;4.40;4.00;;;-11.00;99.90;;;;;;5084396;28;20841;-58
2021/12/22 04:14:21;;;;;;;4.85;4.45;;;-11.00;99.90;;;;;;5145361;27;20547;-58
2021/12/22 04:17:01;;;;;;;5.18;4.70;;;-11.00;99.90;;;;;;5145656;27;20673;-58
2021/12/22 04:19:41;;;;;;;5.78;4.38;;;-11.00;99.90;;;;;;5146355;27;20527;-58
2021/12/22 04:22:21;;;;;;;4.10;3.80;;;-11.00;99.90;;;;;;5084576;28;20660;-58
2021/12/22 04:25:01;;;;;;;4.72;4.32;;;-11.00;99.90;;;;;;5083809;27;20543;-58
2021/12/22 04:27:41;;;;;;;4.70;4.32;;;-11.00;99.90;;;;;;5084554;28;20656;-59
2021/12/22 04:30:21;;;;;;;4.90;4.50;;;-11.00;99.90;;;;;;5125226;27;20605;-58
2021/12/22 04:33:00;;;;;;;5.30;4.90;;;-11.10;99.90;;;;;;5084761;28;21209;-58
2021/12/22 04:35:40;;;;;;;4.90;4.50;;;-11.10;99.90;;;;;;5145539;27;20534;-58
2021/12/22 04:38:20;;;;;;;4.80;4.40;;;-11.10;99.90;;;;;;5084619;27;20819;-59
2021/12/22 04:41:00;;;;;;;4.88;4.47;;;-11.20;99.90;;;;;;5084624;27;20957;-58
2021/12/22 04:43:39;;;;;;;5.50;4.40;;;-11.20;99.90;;;;;;5084753;28;20675;-58
2021/12/22 04:46:21;;;;;;;4.78;4.40;;;-11.10;99.90;;;;;;5145301;27;20542;-58
2021/12/22 04:49:01;;;;;;;4.80;4.22;;;-11.20;99.90;;;;;;5084450;27;20543;-58
2021/12/22 04:51:48;;;;;;;4.93;4.45;;;-11.20;99.90;;;;;;5146362;27;20649;-58
2021/12/22 04:54:41;;;;;;;5.40;4.50;;;-11.20;99.90;;;;;;5103136;27;20681;-58
2021/12/22 04:57:21;;;;;;;4.93;4.53;;;-11.20;99.90;;;;;;5146059;27;21250;-57
2021/12/22 05:00:01;;;;;;;4.65;4.22;;;-11.20;99.90;;;;;;5082994;28;20728;-58
2021/12/22 05:02:41;;;;;;;4.95;4.25;;;-11.30;99.90;;;;;;5161633;27;20651;-58
2021/12/22 05:05:21;;;;;;;4.65;4.25;;;-11.30;99.90;;;;;;5104873;27;20669;-58
2021/12/22 05:08:01;;;;;;;5.82;5.32;;;-11.30;99.90;;;;;;5085099;28;20684;-58
2021/12/22 05:10:40;;;;;;;6.70;6.10;;;-11.30;99.90;;;;;;5098685;27;20549;-58
2021/12/22 05:13:20;;;;;;;6.18;5.68;;;-11.30;99.90;;;;;;5081694;27;20680;-57
2021/12/22 05:16:03;;;;;;;6.22;5.57;;;-11.40;99.90;;;;;;5144003;27;20673;-59
2021/12/22 05:18:52;;;;;;;5.53;5.05;;;-11.40;99.90;;;;;;5084465;27;20881;-58
2021/12/22 05:21:31;;;;;;;5.82;5.38;;;-11.40;99.90;;;;;;5084652;27;20531;-58
2021/12/22 05:24:11;;;;;;;6.03;5.43;;;-11.40;99.90;;;;;;5145889;27;20975;-58
2021/12/22 05:26:51;;;;;;;5.18;4.72;;;-11.40;99.90;;;;;;5083928;28;21023;-58
2021/12/22 05:29:30;;;;;;;5.85;5.38;;;-11.30;99.90;;;;;;5084250;27;20904;-58
2021/12/22 05:32:10;;;;;;;8.80;8.02;;;-11.30;99.90;;;;;;5085073;28;20889;-58
2021/12/22 05:34:50;;;;;;;6.80;6.30;;;-11.30;99.90;;;;;;5080920;27;20581;-58
2021/12/22 05:37:30;;;;;;;6.30;5.80;;;-11.10;99.90;;;;;;5084118;27;20676;-59
2021/12/22 05:40:10;;;;;;;7.10;6.40;;;-11.20;99.90;;;;;;5145772;27;21029;-58
2021/12/22 05:42:49;;;;;;;7.57;5.53;;;-11.20;99.90;;;;;;5085164;28;20692;-58
2021/12/22 05:45:29;;;;;;;5.63;5.13;;;-11.30;99.90;;;;;;5084228;27;20667;-58
2021/12/22 05:48:09;;;;;;;7.03;6.45;;;-11.30;99.90;;;;;;5084194;28;20535;-59
2021/12/22 05:50:51;;;;;;;6.90;6.30;;;-11.30;99.90;;;;;;5104234;27;20568;-59
2021/12/22 05:53:31;;;;;;;6.93;6.43;;;-11.30;99.90;;;;;;5145887;27;20693;-58
2021/12/22 05:56:12;;;;;;;9.63;8.82;;;-11.30;99.90;;;;;;5144420;27;20535;-58
2021/12/22 05:58:51;;;;;;;8.43;7.72;;;-11.30;99.90;;;;;;5146488;27;20534;-58
2021/12/22 06:01:32;;;;;;;7.93;7.22;;;-11.30;99.90;;;;;;5084818;28;20555;-58
2021/12/22 06:04:12;;;;;;;8.65;7.85;;;-11.30;99.90;;;;;;5084591;27;20609;-58
2021/12/22 06:06:51;;;;;;;7.35;6.75;;;-11.30;99.90;;;;;;5102128;27;20916;-58
2021/12/22 06:09:31;;;;;;;8.10;7.30;;;-11.30;99.90;;;;;;5081131;27;20563;-58
2021/12/22 06:12:11;;;;;;;7.20;6.50;;;-11.30;99.90;;;;;;5084200;27;20606;-59
2021/12/22 06:14:50;;;;;;;7.57;6.97;;;-11.30;99.90;;;;;;5145400;27;20542;-58
2021/12/22 06:17:31;;;;;;;6.32;5.80;;;-11.30;99.90;;;;;;5084281;27;20548;-58
2021/12/22 06:20:12;;;;;;;6.47;5.97;;;-11.40;99.90;;;;;;5104378;27;20998;-58
2021/12/22 06:22:52;;;;;;;6.70;6.00;;;-11.40;99.90;;;;;;5120347;27;21127;-59
2021/12/22 06:25:32;;;;;;;7.93;7.30;;;-11.40;99.90;;;;;;5082757;27;20535;-59
2021/12/22 06:28:11;;;;;;;6.28;5.78;;;-11.40;99.90;;;;;;5104166;27;20665;-58
2021/12/22 06:30:51;;;;;;;6.40;5.80;;;-11.40;99.90;;;;;;5105113;27;20665;-58
2021/12/22 06:33:31;;;;;;;6.32;5.78;;;-11.50;99.90;;;;;;5145531;27;21040;-59
2021/12/22 06:36:11;;;;;;;5.80;5.32;;;-11.50;99.90;;;;;;5125233;27;20539;-58
2021/12/22 06:38:51;;;;;;;6.47;5.88;;;-11.50;99.90;;;;;;5085018;28;20659;-58
2021/12/22 06:41:31;;;;;;;7.53;6.82;;;-11.50;99.90;;;;;;5104985;27;20796;-59
2021/12/22 06:44:12;;;;;;;6.30;5.70;;;-11.50;99.90;;;;;;5084552;27;21127;-58
2021/12/22 06:46:52;;;;;;;6.78;6.07;;;-11.50;99.90;;;;;;5084456;27;20544;-59
2021/12/22 06:49:31;;;;;;;8.98;7.70;;;-11.50;99.90;;;;;;5125295;27;20652;-58
2021/12/22 06:52:11;;;;;;;7.82;7.13;;;-11.50;99.90;;;;;;5152541;22;20595;-57
2021/12/22 06:54:51;;;;;;;5.63;5.13;;;-11.50;99.90;;;;;;5084357;27;20540;-57
2021/12/22 06:57:32;;;;;;;8.77;7.93;;;-11.50;99.90;;;;;;5084846;27;20539;-57
2021/12/22 07:00:14;;;;;;;8.70;7.80;;;-11.50;99.90;;;;;;5124235;27;20535;-57
2021/12/22 07:02:55;;;;;;;8.38;7.63;;;-11.40;99.90;;;;;;5084891;27;21091;-57
2021/12/22 07:05:35;;;;;;;9.52;8.60;;;-11.40;99.90;;;;;;5084195;27;20573;-57
2021/12/22 07:08:15;;;;;;;8.00;7.30;;;-11.40;99.90;;;;;;5146331;27;21151;-57
2021/12/22 07:10:55;;;;;;;8.52;7.82;;;-11.40;99.90;;;;;;5105524;27;20587;-57
2021/12/22 07:13:35;;;;;;;9.75;8.85;;;-11.40;99.90;;;;;;5084710;27;20548;-56
2021/12/22 07:16:15;;;;;;;10.05;9.15;;;-11.40;99.90;;;;;;5125553;27;20424;-57
2021/12/22 07:18:54;;;;;;;26.23;23.58;;;-11.40;99.90;;;;;;5083840;28;20552;-56
2021/12/22 07:21:34;;;;;;;11.10;10.10;;;-11.20;99.90;;;;;;5084427;28;20559;-56
2021/12/22 07:24:14;;;;;;;14.43;13.10;;;-11.10;99.90;;;;;;5104513;27;20599;-56
2021/12/22 07:26:54;;;;;;;14.02;12.82;;;-10.90;99.90;;;;;;5084414;27;20544;-55
2021/12/22 07:29:34;;;;;;;14.50;13.10;;;-10.70;99.90;;;;;;5146179;27;20558;-56
2021/12/22 07:32:13;;;;;;;15.70;14.20;;;-10.50;99.90;;;;;;5105362;27;20549;-57
2021/12/22 07:35:05;;;;;;;15.05;13.32;;;-10.40;99.90;;;;;;5104753;27;20564;-58
2021/12/22 07:37:57;;;;;;;15.00;13.52;;;-10.40;99.90;;;;;;5085136;28;20659;-56
2021/12/22 07:40:37;;;;;;;13.73;12.38;;;-10.40;99.90;;;;;;5085106;27;20558;-57
2021/12/22 07:43:17;;;;;;;14.80;11.55;;;-10.40;99.90;;;;;;5125877;27;20547;-57
2021/12/22 07:45:57;;;;;;;10.98;9.85;;;-10.30;99.90;;;;;;5084427;28;20668;-54
2021/12/22 07:48:37;;;;;;;10.00;9.00;;;-10.20;99.90;;;;;;5105033;27;20673;-56
2021/12/22 07:51:16;;;;;;;10.27;9.27;;;-10.20;99.90;;;;;;5084481;27;20549;-56
2021/12/22 07:53:56;;;;;;;11.32;10.32;;;-10.20;99.90;;;;;;5084732;28;20682;-56
2021/12/22 07:56:38;;;;;;;12.93;11.73;;;-10.20;99.90;;;;;;5145608;27;20666;-56
2021/12/22 07:59:17;;;;;;;10.50;9.60;;;-10.20;99.90;;;;;;5103490;27;20673;-55
2021/12/22 08:01:58;;;;;;;10.27;9.27;;;-10.20;99.90;;;;;;5084326;28;20695;-56
2021/12/22 08:04:37;;;;;;;12.60;11.15;;;-10.20;99.90;;;;;;5145905;27;20534;-57
2021/12/22 08:07:17;;;;;;;11.60;10.32;;;-10.20;99.90;;;;;;5145719;27;20551;-56
2021/12/22 08:09:57;;;;;;;13.82;12.23;;;-10.10;99.90;;;;;;5124760;27;20548;-56
2021/12/22 08:12:36;;;;;;;22.63;16.17;;;-10.00;99.90;;;;;;5146236;27;20673;-56
2021/12/22 08:15:16;;;;;;;30.05;19.10;;;-9.80;99.90;;;;;;5144512;27;20665;-57
2021/12/22 08:17:58;;;;;;;38.10;23.83;;;-9.70;99.90;;;;;;5076713;27;21072;-56
2021/12/22 08:20:38;;;;;;;27.80;17.25;;;-9.70;99.90;;;;;;5083475;28;20668;-57
2021/12/22 08:23:18;;;;;;;29.98;23.75;;;-9.50;99.90;;;;;;5067591;28;20710;-56
2021/12/22 08:25:57;;;;;;;31.10;22.52;;;-9.50;99.90;;;;;;5104058;27;20952;-56
2021/12/22 08:28:37;;;;;;;25.13;18.77;;;-9.30;99.90;;;;;;5104951;27;20549;-57
2021/12/22 08:31:17;;;;;;;23.00;15.45;;;-9.20;99.90;;;;;;5104721;27;20592;-56
2021/12/22 08:33:57;;;;;;;23.52;16.35;;;-9.10;99.90;;;;;;5081742;27;20547;-57
2021/12/22 08:39:36;;;;;;;20.15;17.05;;;-8.90;99.90;;;;;;5104425;27;20611;-56
2021/12/22 08:42:15;;;;;;;21.02;16.63;;;-8.80;99.90;;;;;;5105070;27;20550;-56
2021/12/22 08:44:55;;;;;;;17.83;14.52;;;-8.80;99.90;;;;;;5082112;27;20574;-56
2021/12/22 08:47:35;;;;;;;12.95;11.65;;;-8.70;99.90;;;;;;5082698;28;21180;-57
2021/12/22 08:50:17;;;;;;;16.95;15.10;;;-8.60;99.90;;;;;;5124473;27;20551;-56
2021/12/22 08:52:56;;;;;;;9.93;9.02;;;-8.40;99.90;;;;;;5082705;27;20543;-56
2021/12/22 08:55:36;;;;;;;10.45;9.50;;;-8.30;99.90;;;;;;5143472;27;21201;-56
2021/12/22 08:58:16;;;;;;;9.98;9.07;;;-8.10;99.90;;;;;;5122432;27;20556;-57
2021/12/22 09:00:56;;;;;;;11.05;10.00;;;-8.00;99.90;;;;;;5080948;28;20547;-57
2021/12/22 09:03:36;;;;;;;9.00;8.07;;;-7.90;99.90;;;;;;5123536;27;20559;-56
2021/12/22 09:06:15;;;;;;;8.75;8.05;;;-7.80;99.90;;;;;;5144774;27;20960;-56
2021/12/22 09:08:55;;;;;;;8.50;7.78;;;-7.60;99.90;;;;;;5125352;27;20540;-56
2021/12/22 09:11:35;;;;;;;11.07;10.10;;;-7.50;99.90;;;;;;5126130;27;20548;-57
2021/12/22 09:14:16;;;;;;;9.65;8.75;;;-7.40;99.90;;;;;;5146296;27;20657;-57
2021/12/22 09:16:55;;;;;;;10.90;10.00;;;-7.40;99.90;;;;;;5146825;27;20669;-57
2021/12/22 09:19:34;;;;;;;10.25;9.45;;;-7.30;99.90;;;;;;5085153;28;20695;-56
2021/12/22 09:22:14;;;;;;;11.48;10.05;;;-7.20;99.90;;;;;;5146796;27;21213;-57
2021/12/22 09:24:54;;;;;;;10.68;9.88;;;-7.10;99.90;;;;;;5104959;27;20653;-56
2021/12/22 09:27:34;;;;;;;9.85;9.05;;;-7.00;99.90;;;;;;5085178;28;20663;-56
2021/12/22 09:30:14;;;;;;;12.20;11.20;;;-7.00;99.90;;;;;;5147037;27;20526;-56
2021/12/22 09:32:54;;;;;;;10.80;9.80;;;-6.90;99.90;;;;;;5105578;27;20957;-56
2021/12/22 09:35:34;;;;;;;12.52;11.52;;;-6.90;99.90;;;;;;5104498;27;21186;-55
2021/12/22 09:38:14;;;;;;;12.88;11.68;;;-6.80;99.90;;;;;;5084804;27;21090;-56
2021/12/22 09:40:53;;;;;;;11.07;9.88;;;-6.80;99.90;;;;;;5082853;27;20837;-56
2021/12/22 09:43:34;;;;;;;10.15;9.23;;;-6.60;99.90;;;;;;5084821;27;20565;-56
2021/12/22 09:46:17;;;;;;;18.60;9.13;;;-6.50;99.90;;;;;;5084097;27;20544;-57
2021/12/22 09:49:06;;;;;;;9.77;9.07;;;-6.50;99.90;;;;;;5146226;27;20530;-56
2021/12/22 09:54:43;;;;;;;9.68;8.98;;;-6.40;99.90;;;;;;5144434;27;20645;-56
2021/12/22 09:57:24;;;;;;;9.32;8.63;;;-6.30;99.90;;;;;;5084318;28;20679;-56
2021/12/22 10:00:06;;;;;;;9.02;8.27;;;-6.30;99.90;;;;;;5142567;27;20696;-56
2021/12/22 10:02:45;;;;;;;9.15;8.35;;;-6.20;99.90;;;;;;5084538;28;20707;-56
2021/12/22 10:05:25;;;;;;;9.73;8.75;;;-6.20;99.90;;;;;;5083809;27;21029;-57
2021/12/22 10:08:10;;;;;;;10.30;9.45;;;-6.10;99.90;;;;;;5084443;28;20663;-56
2021/12/22 10:10:51;;;;;;;10.05;9.20;;;-5.80;99.90;;;;;;5084852;27;20551;-56
2021/12/22 10:13:32;;;;;;;10.30;9.27;;;-5.60;99.90;;;;;;5084407;28;20555;-56
2021/12/22 10:16:17;;;;;;;12.68;11.55;;;-5.50;99.90;;;;;;5125623;27;20548;-56
2021/12/22 10:19:06;;;;;;;11.90;10.80;;;-5.50;99.90;;;;;;5084325;27;21023;-56
2021/12/22 10:21:55;;;;;;;10.57;9.68;;;-5.30;99.90;;;;;;5085061;27;20580;-57
2021/12/22 10:24:37;;;;;;;11.98;11.00;;;-5.20;99.90;;;;;;5081880;27;20628;-56
2021/12/22 10:27:22;;;;;;;11.10;10.00;;;-5.20;99.90;;;;;;5083125;28;20547;-57
2021/12/22 10:30:28;;;;;;;11.40;10.40;;;-5.10;99.90;;;;;;5085327;27;20551;-57
2021/12/22 10:33:16;;;;;;;10.15;9.25;;;-5.10;99.90;;;;;;5085558;27;21003;-56
2021/12/22 10:35:58;;;;;;;10.13;9.32;;;-5.20;99.90;;;;;;5145758;27;20642;-57
2021/12/22 10:38:37;;;;;;;10.23;9.32;;;-5.10;99.90;;;;;;5146701;27;20929;-56
2021/12/22 10:41:17;;;;;;;9.38;8.68;;;-5.00;99.90;;;;;;5083085;27;20547;-56
2021/12/22 10:43:57;;;;;;;10.00;9.00;;;-4.90;99.90;;;;;;5145272;27;20539;-56
2021/12/22 10:46:36;;;;;;;9.50;8.70;;;-4.70;99.90;;;;;;5083982;27;20679;-56
2021/12/22 10:49:19;;;;;;;6.93;6.43;;;-4.60;99.90;;;;;;5104620;27;20670;-56
2021/12/22 10:52:01;;;;;;;8.48;7.78;;;-4.50;99.90;;;;;;5085205;28;20609;-56
2021/12/22 10:54:41;;;;;;;7.30;6.70;;;-4.40;99.90;;;;;;5131777;27;21196;-56
2021/12/22 10:57:20;;;;;;;7.82;7.07;;;-4.30;99.90;;;;;;5084614;28;20543;-56
2021/12/22 11:00:00;;;;;;;6.70;6.20;;;-4.20;99.90;;;;;;5083045;28;20671;-56
2021/12/22 11:02:44;;;;;;;7.90;7.18;;;-4.20;99.90;;;;;;5161641;27;20552;-56
2021/12/22 11:05:28;;;;;;;6.93;6.32;;;-4.20;99.90;;;;;;5083685;27;20571;-56
2021/12/22 11:08:18;;;;;;;6.35;5.85;;;-4.10;99.90;;;;;;5084506;28;21031;-56
2021/12/22 11:10:57;;;;;;;6.60;5.90;;;-4.00;99.90;;;;;;5124428;27;20528;-56
2021/12/22 11:13:37;;;;;;;7.13;6.53;;;-4.00;99.90;;;;;;5084273;28;20547;-57
2021/12/22 11:16:16;;;;;;;6.47;5.97;;;-3.90;99.90;;;;;;5145735;27;20554;-56
2021/12/22 11:19:09;;;;;;;8.90;8.25;;;-3.90;99.90;;;;;;5104467;27;21029;-56
2021/12/22 11:21:58;;;;;;;7.63;7.03;;;-3.90;99.90;;;;;;5126245;27;20552;-56
2021/12/22 11:24:41;;;;;;;7.70;7.03;;;-3.80;99.90;;;;;;5104046;27;20897;-56
2021/12/22 11:27:23;;;;;;;12.80;8.10;;;-3.70;99.90;;;;;;5084640;27;21060;-56
2021/12/22 11:30:04;;;;;;;8.23;7.43;;;-3.40;99.90;;;;;;5084206;28;20543;-56
2021/12/22 11:32:44;;;;;;;8.00;7.40;;;-3.30;99.90;;;;;;5099094;27;20559;-56
2021/12/22 11:35:25;;;;;;;10.13;7.85;;;-3.20;99.90;;;;;;5083760;28;21123;-56
2021/12/22 11:38:04;;;;;;;7.22;6.53;;;-3.20;99.90;;;;;;5104991;27;20658;-56
2021/12/22 11:40:53;;;;;;;6.20;5.72;;;-3.10;99.90;;;;;;5104423;27;20549;-56
2021/12/22 11:43:35;;;;;;;5.55;5.03;;;-3.00;99.90;;;;;;5066068;27;20557;-56
2021/12/22 11:46:15;;;;;;;5.72;5.22;;;-3.00;99.90;;;;;;5084325;28;20667;-56
2021/12/22 11:48:54;;;;;;;5.13;4.72;;;-2.90;99.90;;;;;;5145869;27;20587;-56
2021/12/22 11:51:35;;;;;;;5.60;5.20;;;-2.90;99.90;;;;;;5084642;28;20683;-57
2021/12/22 11:54:15;;;;;;;4.85;4.45;;;-2.90;99.90;;;;;;5084103;28;21035;-56
2021/12/22 11:56:56;;;;;;;4.95;3.88;;;-2.90;99.90;;;;;;5083925;28;20691;-56
2021/12/22 11:59:39;;;;;;;5.30;3.97;;;-2.90;99.90;;;;;;5123899;27;20552;-56
2021/12/22 12:02:25;;;;;;;3.80;3.50;;;-2.90;99.90;;;;;;5084273;27;20582;-56
2021/12/22 12:05:17;;;;;;;3.47;3.20;;;-2.90;99.90;;;;;;5145150;27;20653;-56
2021/12/22 12:07:57;;;;;;;3.90;3.60;;;-2.80;99.90;;;;;;5146057;27;20550;-56
2021/12/22 12:10:46;;;;;;;4.25;3.92;;;-2.80;99.90;;;;;;5145976;27;20965;-56
2021/12/22 12:13:53;;;;;;;4.18;3.80;;;-2.70;99.90;;;;;;5134462;27;20711;-56
2021/12/22 12:22:36;;;;;;;4.13;3.83;;;-2.80;99.90;;;;;;5085195;28;20680;-56
2021/12/22 12:25:20;;;;;;;3.60;3.40;;;-2.70;99.90;;;;;;5145585;27;20546;-56
2021/12/22 12:28:14;;;;;;;4.10;3.50;;;-2.80;99.90;;;;;;5125805;27;20671;-56
2021/12/22 12:30:56;;;;;;;4.18;3.88;;;-2.80;99.90;;;;;;5085486;28;21167;-57
2021/12/22 12:33:43;;;;;;;4.40;4.00;;;-2.80;99.90;;;;;;5084943;28;20675;-56
2021/12/22 12:36:32;;;;;;;5.18;4.32;;;-2.80;99.90;;;;;;5094960;27;20726;-56
2021/12/22 12:39:13;;;;;;;4.05;3.75;;;-2.80;99.90;;;;;;5119206;27;20548;-56
2021/12/22 12:42:01;;;;;;;4.57;3.40;;;-2.80;99.90;;;;;;5084483;27;20556;-57
2021/12/22 12:44:42;;;;;;;4.10;3.70;;;-2.80;99.90;;;;;;5104051;27;21078;-56
2021/12/22 12:47:22;;;;;;;4.03;3.72;;;-2.70;99.90;;;;;;5132719;27;21023;-57
2021/12/22 12:50:22;;;;;;;4.60;3.30;;;-2.70;99.90;;;;;;5084508;27;21111;-56
2021/12/22 12:53:04;;;;;;;3.88;3.58;;;-2.80;99.90;;;;;;5070947;28;20553;-56
2021/12/22 12:55:43;;;;;;;4.05;3.33;;;-2.70;99.90;;;;;;5083462;28;20691;-56
2021/12/22 12:58:32;;;;;;;8.88;3.83;;;-2.70;99.90;;;;;;5145402;27;21395;-56
2021/12/22 13:01:11;;;;;;;4.40;4.00;;;-2.60;99.90;;;;;;5084977;28;20676;-56
2021/12/22 13:03:50;;;;;;;3.60;3.30;;;-2.60;99.90;;;;;;5083992;28;20680;-56
2021/12/22 13:06:30;;;;;;;3.58;3.28;;;-2.70;99.90;;;;;;5079151;27;20549;-56
2021/12/22 13:09:21;;;;;;;6.30;3.70;;;-2.70;99.90;;;;;;5145920;27;20884;-56
2021/12/22 13:12:11;;;;;;;4.20;3.90;;;-2.80;99.90;;;;;;5083385;28;20552;-56
2021/12/22 13:17:53;;;;;;;3.95;3.60;;;-2.80;99.90;;;;;;5084537;28;20719;-56
2021/12/22 13:20:35;;;;;;;3.22;3.03;;;-2.80;99.90;;;;;;5083533;27;20536;-56
2021/12/22 13:23:16;;;;;;;4.05;3.75;;;-2.90;99.90;;;;;;5117500;27;21114;-56
2021/12/22 13:25:56;;;;;;;5.10;4.60;;;-2.90;99.90;;;;;;5145666;27;20680;-57
2021/12/22 13:28:37;;;;;;;3.20;3.00;;;-2.80;99.90;;;;;;5084295;27;20569;-56
2021/12/22 13:31:18;;;;;;;4.07;3.67;;;-2.80;99.90;;;;;;5084444;27;20551;-56
2021/12/22 13:34:02;;;;;;;4.22;3.83;;;-2.90;99.90;;;;;;5084064;28;20544;-56
2021/12/22 13:36:41;;;;;;;5.05;3.70;;;-2.90;99.90;;;;;;5077475;28;20556;-56
2021/12/22 13:39:21;;;;;;;4.13;3.83;;;-3.10;99.90;;;;;;5084325;28;20664;-57
2021/12/22 13:42:06;;;;;;;3.97;3.67;;;-3.10;99.90;;;;;;5084917;28;20566;-56
2021/12/22 13:44:46;;;;;;;6.25;5.80;;;-3.10;99.90;;;;;;5064618;28;20581;-57
2021/12/22 13:47:33;;;;;;;7.40;6.80;;;-3.10;99.90;;;;;;5084037;28;20551;-57
2021/12/22 13:50:13;;;;;;;5.93;5.35;;;-3.10;99.90;;;;;;5103975;27;20666;-55
2021/12/22 13:52:53;;;;;;;5.00;4.60;;;-3.10;99.90;;;;;;5071578;27;20604;-57
2021/12/22 13:55:33;;;;;;;4.88;4.47;;;-3.10;99.90;;;;;;5104121;27;20674;-56
2021/12/22 13:58:33;;;;;;;4.75;4.30;;;-3.10;99.90;;;;;;5084104;28;20555;-56
2021/12/22 14:01:35;;;;;;;4.55;4.25;;;-3.10;99.90;;;;;;5143091;27;20659;-57
2021/12/22 14:04:18;;;;;;;5.22;4.82;;;-3.20;99.90;;;;;;5102947;27;20683;-56
2021/12/22 14:07:08;;;;;;;5.07;4.57;;;-3.30;99.90;;;;;;5123756;27;20656;-57
2021/12/22 14:09:50;;;;;;;4.75;4.38;;;-3.30;99.90;;;;;;5146281;27;20841;-56
2021/12/22 14:12:33;;;;;;;5.32;4.60;;;-3.40;99.90;;;;;;5074926;27;21109;-56
2021/12/22 14:15:13;;;;;;;4.85;4.00;;;-3.50;99.90;;;;;;5082907;27;21620;-57
2021/12/22 14:17:52;;;;;;;4.68;4.38;;;-3.40;99.90;;;;;;5144803;27;20591;-57